Latest Weather Observations for Rolleston Airport

IDQ60801

Issued at 11:32 am EST Tuesday 22 August 2017 (issued every 30 minutes, with the page automatically refreshed every 10 minutes)

About weather observations | Map of weather stations | Latest weather observations for QLD | Other Formats
Station Details ID: 035129 Name: ROLLESTON AIRPORT Lat: -24.46 Lon: 148.63 Height: 219.45 m
Data from the previous 72 hours. | See also: Recent months at Rolleston Airport
Date/Time
EST
Temp
°C
App
Temp
°C
Dew
Point
°C
Rel
Hum
%
Delta-T
°C
Wind Press
QNH
hPa
Press
MSL
hPa
Rain since
9am
mm
Dir  Spd
km/h
Gust
km/h
Spd
kts
Gust
kts
22/11:30am 22.9 20.4 12.2 51 6.1 NW 17 28 9 15 1019.4 1019.1 0.0
22/11:00am 22.0 19.8 12.0 53 5.7 NNW 15 26 8 14 1019.9 1019.6 0.0
22/10:30am 22.1 19.2 12.9 56 5.3 NNW 20 28 11 15 1020.2 1019.9 0.0
22/10:00am 20.6 19.4 12.8 61 4.5 NNW 11 24 6 13 1020.4 1020.1 0.0
22/09:30am 19.3 18.4 12.6 65 3.8 N 9 17 5 9 1020.6 1020.3 0.0
22/09:00am 18.1 17.7 12.3 69 3.2 NNW 6 13 3 7 1020.5 1020.2 0.0
22/08:30am 16.0 15.8 10.5 70 2.9 W 2 4 1 2 1020.5 1020.2 0.0
22/08:00am 13.9 13.6 8.5 70 2.7 CALM 0 0 0 0 1020.3 1020.0 0.0
22/07:30am 10.3 8.7 4.7 68 2.5 S 2 4 1 2 1020.0 1019.7 0.0
22/07:00am 8.2 6.8 3.3 71 2.1 CALM 0 0 0 0 1019.7 1019.4 0.0
22/06:30am 8.6 7.4 4.4 75 1.9 CALM 0 2 0 1 1019.5 1019.2 0.0
22/06:00am 8.8 7.2 6.4 85 1.1 ESE 4 6 2 3 1018.9 1018.6 0.0
22/05:30am 10.1 9.3 6.3 77 1.8 CALM 0 2 0 1 1018.7 1018.4 0.0
22/05:00am 10.6 9.5 7.1 79 1.7 E 2 6 1 3 1018.4 1018.1 0.0
22/04:30am 10.7 10.0 6.8 77 1.9 CALM 0 0 0 0 1018.1 1017.8 0.0
22/04:00am 10.6 9.7 6.2 74 2.1 CALM 0 0 0 0 1018.2 1017.9 0.0
22/03:30am 11.3 10.2 5.2 66 2.8 CALM 0 0 0 0 1018.2 1017.9 0.0
22/03:00am 11.3 10.3 5.4 67 2.7 CALM 0 0 0 0 1018.2 1017.9 0.0
22/02:30am 12.1 10.5 4.6 60 3.5 NW 2 4 1 2 1018.4 1018.1 0.0
22/02:00am 12.6 11.4 4.8 59 3.6 CALM 0 0 0 0 1018.6 1018.3 0.0
22/01:30am 13.3 12.2 5.2 58 3.8 CALM 0 0 0 0 1018.8 1018.5 0.0
22/01:00am 13.7 12.9 6.3 61 3.6 CALM 0 0 0 0 1018.9 1018.6 0.0
22/12:30am 13.4 12.3 5.1 57 3.9 CALM 0 0 0 0 1018.9 1018.6 0.0
22/12:00am 13.2 11.6 4.4 55 4.1 WSW 2 4 1 2 1018.6 1018.3 0.0
 
Date/Time
EST
Temp
°C
App
Temp
°C
Dew
Point
°C
Rel
Hum
%
Delta-T
°C
Wind Press
QNH
hPa
Press
MSL
hPa
Rain since
9am
mm
Dir  Spd
km/h
Gust
km/h
Spd
kts
Gust
kts
21/11:30pm 14.1 11.8 4.7 53 4.4 NNE 6 9 3 5 1017.8 1017.5 0.0
21/11:00pm 14.4 11.8 4.1 50 4.8 N 7 9 4 5 1017.8 1017.5 0.0
21/10:30pm 14.9 12.3 3.1 45 5.4 N 6 7 3 4 1018.0 1017.7 0.0
21/10:00pm 16.1 13.4 2.9 41 6.0 N 6 7 3 4 1017.9 1017.6 0.0
21/09:30pm 16.7 14.5 3.4 41 6.2 NNE 4 6 2 3 1018.0 1017.7 0.0
21/09:00pm 16.3 14.1 3.4 42 6.0 NNE 4 13 2 7 1017.5 1017.2 0.0
21/08:30pm 16.6 13.9 3.7 42 6.0 NNE 7 9 4 5 1017.7 1017.4 0.0
21/08:00pm 16.9 14.6 2.9 39 6.5 N 4 6 2 3 1017.9 1017.6 0.0
21/07:30pm 17.9 15.1 3.0 37 7.0 N 7 7 4 4 1017.4 1017.1 0.0
21/07:00pm 18.5 15.6 2.4 34 7.4 NNE 7 9 4 5 1017.3 1017.0 0.0
21/06:30pm 19.0 16.1 2.8 34 7.6 NNE 7 9 4 5 1017.2 1016.9 0.0
21/06:00pm 20.1 17.8 2.5 31 8.3 N 4 6 2 3 1017.1 1016.7 0.0
21/05:30pm 22.6 19.0 2.7 27 9.6 N 11 15 6 8 1016.9 1016.5 0.0
21/05:00pm 22.7 20.3 2.2 26 9.8 N 4 9 2 5 1016.7 1016.3 0.0
21/04:30pm 24.2 20.5 2.4 24 10.5 NNW 11 17 6 9 1016.8 1016.4 0.0
21/04:00pm 24.1 19.2 2.3 24 10.5 NNW 17 24 9 13 1016.8 1016.4 0.0
21/03:30pm 24.5 20.5 2.6 24 10.6 NNW 13 26 7 14 1016.9 1016.5 0.0
21/03:00pm 24.7 20.5 1.6 22 11.0 NNW 13 26 7 14 1017.0 1016.6 0.0
21/02:30pm 23.7 18.7 1.4 23 10.5 N 17 30 9 16 1017.3 1017.0 0.0
21/02:00pm 23.3 18.5 0.4 22 10.6 N 15 28 8 15 1017.8 1017.5 0.0
21/01:30pm 23.1 18.6 -0.4 21 10.7 NNW 13 24 7 13 1018.6 1018.3 0.0
21/01:00pm 21.9 18.0 -1.4 21 10.3 NNW 9 17 5 9 1019.0 1018.7 0.0
21/12:30pm 21.6 17.3 -1.6 21 10.2 N 11 19 6 10 1019.6 1019.3 0.0
21/12:00pm 22.0 17.6 -2.7 19 10.6 NNW 11 22 6 12 1020.5 1020.2 0.0
21/11:30am 20.4 16.7 -3.3 20 9.9 N 7 20 4 11 1021.3 1021.1 0.0
21/11:00am 18.8 15.7 -6.0 18 9.7 WNW 2 11 1 6 1021.9 1021.6 0.0
21/10:30am 17.7 14.0 -8.4 16 9.6 NW 4 6 2 3 1022.0 1021.7 0.0
21/10:00am 15.6 12.4 -7.2 20 8.4 WSW 2 6 1 3 1022.4 1022.1 0.0
21/09:30am 13.9 11.1 -7.4 22 7.6 CALM 0 2 0 1 1022.2 1021.9 0.0
21/09:00am 11.3 8.2 -6.5 28 6.3 SW 2 7 1 4 1022.0 1021.7 0.0
21/08:30am 9.0 6.0 -9.0 27 5.8 CALM 0 2 0 1 1021.5 1021.2 0.0
21/08:00am 7.5 4.2 -8.1 32 5.0 SSE 2 4 1 2 1021.3 1021.1 0.0
21/07:30am 5.4 2.5 -7.8 38 4.2 CALM 0 0 0 0 1020.9 1020.6 0.0
21/07:00am 2.6 -0.3 -7.6 47 3.3 CALM 0 0 0 0 1020.8 1020.5 0.0
21/06:30am 1.8 -1.1 -8.0 48 3.1 CALM 0 0 0 0 1020.2 1019.9 0.0
21/06:00am 2.5 -0.9 -9.4 41 3.6 SSE 2 4 1 2 1019.9 1019.6 0.0
21/05:30am 2.6 -1.6 -9.6 40 3.7 SSE 6 6 3 3 1019.6 1019.3 0.0
21/05:00am 2.5 -0.8 -8.2 45 3.4 S 2 4 1 2 1019.4 1019.1 0.0
21/04:30am 1.7 -1.6 -8.1 48 3.1 SSW 2 2 1 1 1019.4 1019.1 0.0
21/04:00am 1.7 -1.6 -8.7 46 3.2 SSW 2 4 1 2 1019.2 1018.9 0.0
21/03:30am 2.1 -1.2 -8.6 45 3.3 S 2 4 1 2 1019.2 1018.9 0.0
21/03:00am 0.9 -2.1 -9.4 46 3.0 CALM 0 0 0 0 1019.3 1019.0 0.0
21/02:30am 2.6 -1.6 -10.3 38 3.9 SSE 6 7 3 4 1019.3 1019.0 0.0
21/02:00am 4.3 0.5 -9.8 35 4.2 SSE 4 6 2 3 1019.5 1019.2 0.0
21/01:30am 4.8 0.1 -9.7 34 4.3 SSE 9 11 5 6 1019.7 1019.4 0.0
21/01:00am 4.7 1.0 -8.0 39 4.0 S 4 6 2 3 1020.0 1019.7 0.0
21/12:30am 3.3 -0.1 -9.3 39 3.9 S 2 4 1 2 1020.3 1020.0 0.0
21/12:00am 4.8 1.8 -9.3 35 4.3 CALM 0 2 0 1 1020.1 1019.8 0.0
 
Date/Time
EST
Temp
°C
App
Temp
°C
Dew
Point
°C
Rel
Hum
%
Delta-T
°C
Wind Press
QNH
hPa
Press
MSL
hPa
Rain since
9am
mm
Dir  Spd
km/h
Gust
km/h
Spd
kts
Gust
kts
20/11:30pm 5.9 2.0 -10.7 29 4.9 SE 4 6 2 3 1020.2 1019.9 0.0
20/11:00pm 6.5 2.3 -10.7 28 5.1 SSE 6 6 3 3 1020.2 1019.9 0.0
20/10:30pm 7.3 4.2 -10.4 27 5.4 CALM 0 0 0 0 1020.3 1020.0 0.0
20/10:00pm 8.4 4.5 -10.5 25 5.8 SSE 4 6 2 3 1020.6 1020.3 0.0
20/09:30pm 8.8 5.0 -10.1 25 6.0 SSE 4 6 2 3 1020.6 1020.3 0.0
20/09:00pm 8.3 5.2 -10.0 26 5.7 CALM 0 0 0 0 1020.6 1020.3 0.0
20/08:30pm 12.4 8.5 -11.9 17 7.7 ENE 4 6 2 3 1020.6 1020.3 0.0
20/08:00pm 14.3 9.9 -12.8 14 8.7 ENE 6 6 3 3 1020.5 1020.2 0.0
20/07:30pm 13.8 9.4 -12.3 15 8.4 ENE 6 7 3 4 1020.4 1020.1 0.0
20/07:00pm 14.6 9.7 -12.6 14 8.8 E 9 9 5 5 1020.1 1019.8 0.0
20/06:30pm 15.7 11.4 -10.8 15 9.0 ENE 6 7 3 4 1019.6 1019.3 0.0
20/06:00pm 16.4 13.3 -11.1 14 9.4 CALM 0 0 0 0 1019.3 1019.0 0.0
20/05:30pm 18.2 14.3 -10.6 13 10.2 SW 4 6 2 3 1018.9 1018.6 0.0
20/05:00pm 19.1 14.8 -12.0 11 10.8 SSW 6 9 3 5 1018.6 1018.3 0.0
20/04:30pm 19.8 15.9 -11.5 11 11.1 SSW 4 7 2 4 1018.4 1018.1 0.0
20/04:00pm 19.5 15.2 -11.7 11 10.9 S 6 11 3 6 1018.4 1018.1 0.0
20/03:30pm 19.4 14.1 -11.8 11 10.9 SSE 11 20 6 11 1018.5 1018.2 0.0
20/03:00pm 19.0 14.1 -12.1 11 10.7 SE 9 15 5 8 1018.9 1018.6 0.0
20/02:30pm 18.6 12.7 -10.3 13 10.3 SSE 15 24 8 13 1019.0 1018.7 0.0
20/02:00pm 17.9 11.9 -10.9 13 10.0 S 15 24 8 13 1019.4 1019.1 0.0
20/01:30pm 17.8 11.2 -9.1 15 9.8 SSE 19 32 10 17 1019.9 1019.6 0.0
20/01:00pm 17.3 11.1 -8.7 16 9.4 SSE 17 24 9 13 1020.5 1020.2 0.0
20/12:30pm 16.2 10.0 -8.8 17 9.0 SSE 17 30 9 16 1021.0 1020.8 0.0
20/12:00pm 16.1 10.5 -6.2 21 8.4 SSE 15 28 8 15 1021.7 1021.4 0.0
20/11:30am 15.3 10.1 -5.7 23 8.0 SSW 13 22 7 12 1022.1 1021.8 0.0
20/11:00am 15.2 8.9 -5.8 23 7.9 SSE 19 33 10 18 1023.0 1022.7 0.0
20/10:30am 13.8 7.5 -5.9 25 7.3 SSE 19 30 10 16 1023.5 1023.2 0.0
20/10:00am 14.1 8.7 -4.1 28 7.0 SSE 15 26 8 14 1023.7 1023.4 0.0
20/09:30am 12.3 6.5 -4.8 30 6.4 S 17 24 9 13 1023.9 1023.6 0.0
20/09:00am 11.6 6.2 -4.5 32 6.0 S 15 28 8 15 1024.0 1023.7 0.0
20/08:30am 10.4 6.5 -4.4 35 5.5 SW 7 13 4 7 1024.1 1023.8 0.0
20/08:00am 8.4 4.7 -4.7 39 4.7 SSE 6 9 3 5 1023.7 1023.4 0.0
20/07:30am 7.2 3.5 -4.5 43 4.1 SE 6 7 3 4 1023.6 1023.3 0.0
20/07:00am 5.9 2.2 -4.8 46 3.7 S 6 7 3 4 1023.2 1022.9 0.0
20/06:30am 6.9 3.6 -4.5 44 4.0 S 4 7 2 4 1022.6 1022.3 0.0
20/06:00am 5.3 1.0 -5.1 47 3.5 SSE 9 9 5 5 1022.4 1022.1 0.0
20/05:30am 6.2 1.9 -4.5 46 3.7 SSE 9 9 5 5 1021.9 1021.6 0.0
20/05:00am 6.6 2.8 -5.4 42 4.1 SSE 6 9 3 5 1021.3 1021.1 0.0
20/04:30am 7.9 3.6 -5.2 39 4.6 S 9 11 5 6 1020.8 1020.5 0.0
20/04:00am 6.5 2.7 -5.2 43 4.0 SSE 6 9 3 5 1020.7 1020.4 0.0
20/03:30am 9.4 5.5 -4.9 36 5.1 S 7 13 4 7 1020.6 1020.3 0.0
20/03:00am 8.9 4.9 -5.3 36 5.0 S 7 9 4 5 1020.8 1020.5 0.0
20/02:30am 8.4 4.4 -5.4 37 4.8 SSE 7 9 4 5 1021.0 1020.8 0.0
20/02:00am 10.5 6.2 -5.1 33 5.6 S 9 13 5 7 1021.1 1020.9 0.0
20/01:30am 10.5 6.1 -5.5 32 5.8 S 9 13 5 7 1021.2 1021.0 0.0
20/01:00am 11.1 6.4 -5.4 31 6.0 S 11 15 6 8 1021.6 1021.3 0.0
20/12:30am 11.9 6.4 -5.5 29 6.4 SSE 15 19 8 10 1021.7 1021.4 0.0
20/12:00am 11.6 6.4 -5.8 29 6.3 SSE 13 17 7 9 1021.7 1021.4 0.0
 
Date/Time
EST
Temp
°C
App
Temp
°C
Dew
Point
°C
Rel
Hum
%
Delta-T
°C
Wind Press
QNH
hPa
Press
MSL
hPa
Rain since
9am
mm
Dir  Spd
km/h
Gust
km/h
Spd
kts
Gust
kts
19/11:30pm 10.4 5.6 -5.6 32 5.7 SSE 11 13 6 7 1021.8 1021.5 0.0
19/11:00pm 11.8 7.3 -6.6 27 6.5 SSE 9 11 5 6 1022.0 1021.7 0.0
19/10:30pm 13.2 8.3 -6.9 24 7.2 S 11 17 6 9 1021.9 1021.6 0.0
19/10:00pm 14.3 8.3 -7.1 22 7.7 S 17 22 9 12 1021.7 1021.4 0.0
19/09:30pm 12.9 7.9 -7.7 23 7.3 S 11 17 6 9 1021.6 1021.3 0.0
19/09:00pm 11.7 7.1 -8.2 24 6.8 SSE 9 11 5 6 1021.2 1021.0 0.0
19/08:30pm 14.4 9.4 -8.2 20 8.0 SSE 11 17 6 9 1020.7 1020.4 0.0
19/08:00pm 16.0 10.2 -9.0 17 8.9 SSE 15 20 8 11 1020.3 1020.0 0.0
19/07:30pm 16.6 11.1 -9.3 16 9.2 SSE 13 20 7 11 1019.8 1019.5 0.0
19/07:00pm 17.4 12.3 -9.5 15 9.6 SSE 11 19 6 10 1019.4 1019.1 0.0
19/06:30pm 17.9 13.1 -9.9 14 9.9 S 9 13 5 7 1019.0 1018.7 0.0
19/06:00pm 19.1 13.8 -12.0 11 10.8 S 11 15 6 8 1018.5 1018.2 0.0
19/05:30pm 20.9 14.5 -11.8 10 11.7 S 17 26 9 14 1018.2 1017.9 0.0
19/05:00pm 21.7 14.9 -12.5 9 12.1 S 19 35 10 19 1017.9 1017.6 0.0
19/04:30pm 22.1 15.3 -12.2 9 12.3 S 19 35 10 19 1017.6 1017.3 0.0
19/04:00pm 22.5 15.7 -11.9 9 12.4 S 19 33 10 18 1017.6 1017.3 0.0
19/03:30pm 22.4 15.0 -12.0 9 12.4 S 22 33 12 18 1017.5 1017.2 0.0
19/03:00pm 22.3 15.7 -9.5 11 12.0 S 19 30 10 16 1017.7 1017.4 0.0
19/02:30pm 22.9 16.7 -9.1 11 12.3 SSW 17 26 9 14 1018.0 1017.7 0.0
19/02:00pm 21.5 15.8 -7.1 14 11.2 SSW 15 28 8 15 1018.4 1018.1 0.0
19/01:30pm 20.8 14.6 -5.1 17 10.5 S 19 28 10 15 1019.0 1018.7 0.0
19/01:00pm 20.4 15.1 -4.0 19 10.1 SSW 15 28 8 15 1019.6 1019.3 0.0
19/12:30pm 19.5 14.2 -4.0 20 9.6 SSW 15 26 8 14 1020.2 1019.9 0.0
19/12:00pm 19.4 13.7 -4.1 20 9.6 SSW 17 28 9 15 1020.6 1020.3 0.0

Other Formats:

Comma delimited format used in spreadsheet applications
http://www.bom.gov.au/fwo/IDQ60801/IDQ60801.94396.axf

JavaScript Object Notation format (JSON) in row-major order
http://www.bom.gov.au/fwo/IDQ60801/IDQ60801.94396.json